createdAt,value
2019-02-27T00:01:18.894Z,71.51
2019-02-27T00:03:48.301Z,71.60
2019-02-27T00:06:17.703Z,71.59
2019-02-27T00:08:47.058Z,71.91
2019-02-27T00:11:16.645Z,71.87
2019-02-27T00:13:46.153Z,71.97
2019-02-27T00:16:15.570Z,71.88
2019-02-27T00:18:44.988Z,72.18
2019-02-27T00:21:15.287Z,72.12
2019-02-27T00:23:44.634Z,72.07
2019-02-27T00:26:13.965Z,72.17
2019-02-27T00:28:43.593Z,72.48
2019-02-27T00:31:12.918Z,72.33
2019-02-27T00:33:42.258Z,72.52
2019-02-27T00:36:12.306Z,72.38
2019-02-27T00:38:43.737Z,72.58
2019-02-27T00:41:13.115Z,72.62
2019-02-27T00:43:42.685Z,72.75
2019-02-27T00:46:13.403Z,72.66
2019-02-27T00:48:44.304Z,72.92
2019-02-27T00:51:13.988Z,73.19
2019-02-27T00:53:43.302Z,73.10
2019-02-27T00:56:12.937Z,73.17
2019-02-27T00:58:42.418Z,73.29
2019-02-27T01:01:12.658Z,73.28
2019-02-27T01:03:42.525Z,73.46
2019-02-27T01:06:14.622Z,73.63
2019-02-27T01:08:43.404Z,73.65
2019-02-27T01:11:12.731Z,73.88
2019-02-27T01:13:42.066Z,73.82
2019-02-27T01:16:11.439Z,73.91
2019-02-27T01:18:40.769Z,74.07
2019-02-27T01:21:10.108Z,73.99
2019-02-27T01:23:43.859Z,73.90
2019-02-27T01:26:10.470Z,74.06
2019-02-27T01:28:44.679Z,74.14
2019-02-27T01:31:11.093Z,74.19
2019-02-27T01:33:40.507Z,74.20
2019-02-27T01:36:10.143Z,74.32
2019-02-27T01:38:39.478Z,74.22
2019-02-27T01:41:08.816Z,74.10
2019-02-27T01:43:39.862Z,74.32
2019-02-27T01:46:09.183Z,74.19
2019-02-27T01:48:42.821Z,74.47
2019-02-27T01:51:09.545Z,74.51
2019-02-27T01:53:40.451Z,74.61
2019-02-27T01:56:10.244Z,74.72
2019-02-27T01:58:43.310Z,74.69
2019-02-27T02:01:10.689Z,74.69
2019-02-27T02:03:40.189Z,74.85
2019-02-27T02:06:09.924Z,74.93
2019-02-27T02:08:43.188Z,75.11
2019-02-27T02:11:12.525Z,75.08
2019-02-27T02:13:50.817Z,75.31
2019-02-27T02:16:28.871Z,75.33
2019-02-27T02:19:26.912Z,75.36
2019-02-27T02:22:14.273Z,75.26
2019-02-27T02:25:10.153Z,75.43
2019-02-27T02:27:57.986Z,75.15
2019-02-27T02:30:44.914Z,75.56
2019-02-27T02:33:17.540Z,75.58
2019-02-27T02:36:04.617Z,75.58
2019-02-27T02:38:53.629Z,75.76
2019-02-27T02:41:34.959Z,76.00
2019-02-27T02:44:26.799Z,75.76
2019-02-27T02:47:08.167Z,75.86
2019-02-27T02:49:49.365Z,76.01
2019-02-27T02:52:41.705Z,76.02
2019-02-27T02:55:23.380Z,75.93
2019-02-27T02:58:07.752Z,76.03
2019-02-27T03:01:13.964Z,76.05
2019-02-27T03:03:43.006Z,76.48
2019-02-27T03:06:34.582Z,76.53
2019-02-27T03:09:30.639Z,76.63
2019-02-27T03:12:21.322Z,76.60
2019-02-27T03:14:54.560Z,76.69
2019-02-27T03:17:27.081Z,76.58
2019-02-27T03:20:19.406Z,76.91
2019-02-27T03:23:09.141Z,76.97
2019-02-27T03:25:47.530Z,76.96
2019-02-27T03:28:40.580Z,77.00
2019-02-27T03:31:35.034Z,77.09
2019-02-27T03:34:25.113Z,77.18
2019-02-27T03:37:13.152Z,77.29
2019-02-27T03:39:55.765Z,77.37
2019-02-27T03:42:40.187Z,77.33
2019-02-27T03:45:32.383Z,77.35
2019-02-27T03:48:13.558Z,77.38
2019-02-27T03:50:54.975Z,77.27
2019-02-27T03:53:27.391Z,77.35
2019-02-27T03:56:16.358Z,77.20
2019-02-27T03:59:09.296Z,77.20
2019-02-27T04:02:05.876Z,77.12
2019-02-27T04:04:46.595Z,77.09
2019-02-27T04:07:43.357Z,77.33
2019-02-27T04:10:12.699Z,77.39
2019-02-27T04:12:42.073Z,77.47
2019-02-27T04:15:17.615Z,77.45
2019-02-27T04:17:41.533Z,77.25
2019-02-27T04:20:14.609Z,77.40
2019-02-27T04:22:41.961Z,77.44
2019-02-27T04:25:11.295Z,77.43
2019-02-27T04:27:43.728Z,77.49
2019-02-27T04:30:15.665Z,77.16
2019-02-27T04:32:48.688Z,77.55
2019-02-27T04:35:16.021Z,77.75
2019-02-27T04:37:45.353Z,77.68
2019-02-27T04:40:14.683Z,77.58
2019-02-27T04:42:44.016Z,77.79
2019-02-27T04:45:13.349Z,77.69
2019-02-27T04:47:42.744Z,77.68
2019-02-27T04:50:12.144Z,77.71
2019-02-27T04:52:41.484Z,77.62
2019-02-27T04:55:15.342Z,77.63
2019-02-27T04:57:41.915Z,77.78
2019-02-27T05:00:12.189Z,77.71
2019-02-27T05:02:41.533Z,77.95
2019-02-27T05:05:10.930Z,77.85
2019-02-27T05:07:41.525Z,77.69
2019-02-27T05:10:11.258Z,77.88
2019-02-27T05:12:40.600Z,77.79
2019-02-27T05:15:10.101Z,77.89
2019-02-27T05:17:39.432Z,78.09
2019-02-27T05:20:12.527Z,77.84
2019-02-27T05:22:40.345Z,78.08
2019-02-27T05:25:12.078Z,78.26
2019-02-27T05:27:41.075Z,78.49
2019-02-27T05:30:12.879Z,78.48
2019-02-27T05:32:42.631Z,78.41
2019-02-27T05:35:11.981Z,78.46
2019-02-27T05:37:41.370Z,78.55
2019-02-27T05:40:11.241Z,78.47
2019-02-27T05:42:40.568Z,78.47
2019-02-27T05:45:12.055Z,78.44
2019-02-27T05:47:44.673Z,78.46
2019-02-27T05:50:12.890Z,78.79
2019-02-27T05:52:42.223Z,78.66
2019-02-27T05:55:12.418Z,78.71
2019-02-27T05:57:41.745Z,78.83
2019-02-27T06:00:16.689Z,78.88
2019-02-27T06:02:46.039Z,78.90
2019-02-27T06:05:15.551Z,78.99
2019-02-27T06:07:45.136Z,78.75
2019-02-27T06:10:20.158Z,78.84
2019-02-27T06:12:48.992Z,78.96
2019-02-27T06:15:18.874Z,78.87
2019-02-27T06:17:49.206Z,78.89
2019-02-27T06:20:19.427Z,78.91
2019-02-27T06:22:49.730Z,79.30
2019-02-27T06:25:23.212Z,79.25
2019-02-27T06:27:50.373Z,79.36
2019-02-27T06:30:21.049Z,79.34
2019-02-27T06:32:50.647Z,79.45
2019-02-27T06:35:19.975Z,79.59
2019-02-27T06:37:50.866Z,79.85
2019-02-27T06:40:20.368Z,80.02
2019-02-27T06:42:53.427Z,80.08
2019-02-27T06:45:20.805Z,80.05
2019-02-27T06:47:50.149Z,80.17
2019-02-27T06:50:19.525Z,80.22
2019-02-27T06:52:48.848Z,80.31
2019-02-27T06:55:18.187Z,80.38
2019-02-27T06:57:47.510Z,80.48
2019-02-27T07:00:24.463Z,80.57
2019-02-27T07:02:55.458Z,80.61
2019-02-27T07:05:24.822Z,80.69
2019-02-27T07:07:54.159Z,80.70
2019-02-27T07:10:23.492Z,80.76
2019-02-27T07:12:54.682Z,80.98
2019-02-27T07:15:23.916Z,80.93
2019-02-27T07:17:53.246Z,81.03
2019-02-27T07:20:24.605Z,80.96
2019-02-27T07:22:53.964Z,80.81
2019-02-27T07:25:23.285Z,80.92
2019-02-27T07:27:52.620Z,80.90
2019-02-27T07:30:23.709Z,81.09
2019-02-27T07:32:52.987Z,80.79
2019-02-27T07:35:25.371Z,80.64
2019-02-27T07:37:53.751Z,80.34
2019-02-27T07:40:23.074Z,79.85
2019-02-27T07:42:52.405Z,75.84
2019-02-27T07:45:22.932Z,75.91
2019-02-27T07:47:52.597Z,71.64
2019-02-27T07:50:22.292Z,69.97
2019-02-27T07:52:52.251Z,66.06
2019-02-27T07:55:23.300Z,65.18
2019-02-27T07:57:52.774Z,63.16
2019-02-27T08:00:23.277Z,62.10
2019-02-27T08:02:52.956Z,61.25
2019-02-27T08:05:22.213Z,60.55
2019-02-27T08:07:51.546Z,59.27
2019-02-27T08:10:22.980Z,57.84
2019-02-27T08:12:55.530Z,56.95
2019-02-27T08:15:25.204Z,55.56
2019-02-27T08:17:57.469Z,54.03
2019-02-27T08:20:25.740Z,54.06
2019-02-27T08:22:55.064Z,53.34
2019-02-27T08:25:24.637Z,52.52
2019-02-27T08:27:54.312Z,52.48
2019-02-27T08:30:25.091Z,51.00
2019-02-27T08:32:54.497Z,50.51
2019-02-27T08:35:23.823Z,49.60
2019-02-27T08:38:01.890Z,49.70
2019-02-27T08:40:25.248Z,49.20
2019-02-27T08:42:54.906Z,49.34
2019-02-27T08:45:26.967Z,48.84
2019-02-27T08:47:55.843Z,48.27
2019-02-27T08:50:25.297Z,48.80
2019-02-27T08:52:54.626Z,47.83
2019-02-27T08:55:24.931Z,47.67
2019-02-27T08:57:56.928Z,48.13
2019-02-27T09:00:32.709Z,47.62
2019-02-27T09:03:03.037Z,46.81
2019-02-27T09:05:33.183Z,46.55
2019-02-27T09:08:02.509Z,46.14
2019-02-27T09:10:31.848Z,46.23
2019-02-27T09:13:05.363Z,46.24
2019-02-27T09:15:32.445Z,46.33
2019-02-27T09:18:02.479Z,46.74
2019-02-27T09:20:31.782Z,46.04
2019-02-27T09:23:01.354Z,46.20
2019-02-27T09:25:30.694Z,46.08
2019-02-27T09:28:00.089Z,46.23
2019-02-27T09:30:30.224Z,46.39
2019-02-27T09:32:59.632Z,46.23
2019-02-27T09:35:32.259Z,46.61
2019-02-27T09:38:00.310Z,46.73
2019-02-27T09:40:30.756Z,46.13
2019-02-27T09:43:00.085Z,45.30
2019-02-27T09:45:35.765Z,45.96
2019-02-27T09:48:05.376Z,45.60
2019-02-27T09:50:36.995Z,46.52
2019-02-27T09:53:06.336Z,47.27
2019-02-27T09:55:35.895Z,46.07
2019-02-27T09:58:09.960Z,46.07
2019-02-27T10:00:42.402Z,46.25
2019-02-27T10:03:11.942Z,45.70
2019-02-27T10:05:41.249Z,45.31
2019-02-27T10:08:12.240Z,44.61
2019-02-27T10:10:44.898Z,44.97
2019-02-27T10:13:12.682Z,44.63
2019-02-27T10:15:42.195Z,44.72
2019-02-27T10:18:11.571Z,44.62
2019-02-27T10:20:40.907Z,44.21
2019-02-27T10:23:10.220Z,44.00
2019-02-27T10:25:43.245Z,45.00
2019-02-27T10:28:10.765Z,43.34
2019-02-27T10:30:40.101Z,44.69
2019-02-27T10:33:11.119Z,44.21
2019-02-27T10:35:40.763Z,43.35
2019-02-27T10:38:10.094Z,43.04
2019-02-27T10:40:39.433Z,42.92
2019-02-27T10:43:09.173Z,42.33
2019-02-27T10:45:38.509Z,43.44
2019-02-27T10:48:07.848Z,42.92
2019-02-27T10:50:37.407Z,42.36
2019-02-27T10:53:06.754Z,43.64
2019-02-27T10:55:36.089Z,42.14
2019-02-27T10:58:07.568Z,41.79
2019-02-27T11:00:36.496Z,40.81
2019-02-27T11:03:05.901Z,40.42
2019-02-27T11:05:37.512Z,39.87
2019-02-27T11:08:06.918Z,39.93
2019-02-27T11:10:36.321Z,41.05
2019-02-27T11:13:07.052Z,39.53
2019-02-27T11:15:41.151Z,37.46
2019-02-27T11:18:07.606Z,37.04
2019-02-27T11:20:36.935Z,35.55
2019-02-27T11:23:07.090Z,34.54
2019-02-27T11:25:36.998Z,34.19
2019-02-27T11:28:06.498Z,32.59
2019-02-27T11:30:37.751Z,31.17
2019-02-27T11:33:07.220Z,28.17
2019-02-27T11:35:36.555Z,27.15
2019-02-27T11:38:05.880Z,26.28
2019-02-27T11:40:35.521Z,26.59
2019-02-27T11:43:06.970Z,25.01
2019-02-27T11:45:35.949Z,23.86
2019-02-27T11:48:05.448Z,23.25
2019-02-27T11:50:34.777Z,22.54
2019-02-27T11:53:04.173Z,22.53
2019-02-27T11:55:33.505Z,21.83
2019-02-27T11:58:05.329Z,21.28
2019-02-27T12:00:34.411Z,21.07
2019-02-27T12:03:03.809Z,19.81
2019-02-27T12:05:34.473Z,20.22
2019-02-27T12:08:04.075Z,19.32
2019-02-27T12:10:33.562Z,19.14
2019-02-27T12:13:03.138Z,18.74
2019-02-27T12:15:32.462Z,19.06
2019-02-27T12:18:01.972Z,17.96
2019-02-27T12:20:31.364Z,17.19
2019-02-27T12:23:00.701Z,17.16
2019-02-27T12:25:30.462Z,17.36
2019-02-27T12:28:01.921Z,17.72
2019-02-27T12:30:32.292Z,17.55
2019-02-27T12:33:01.699Z,16.92
2019-02-27T12:35:35.849Z,16.98
2019-02-27T12:38:08.182Z,17.56
2019-02-27T12:40:37.098Z,17.92
2019-02-27T12:43:06.430Z,17.82
2019-02-27T12:45:35.826Z,17.50
2019-02-27T12:48:05.239Z,17.79
2019-02-27T12:50:34.849Z,16.76
2019-02-27T12:53:04.713Z,16.74
2019-02-27T12:55:36.253Z,15.50
2019-02-27T12:58:05.079Z,15.97
2019-02-27T13:00:35.949Z,16.12
2019-02-27T13:03:08.461Z,16.50
2019-02-27T13:05:36.486Z,15.79
2019-02-27T13:08:06.214Z,16.55
2019-02-27T13:10:35.551Z,17.10
2019-02-27T13:13:04.923Z,15.38
2019-02-27T13:15:34.262Z,15.23
2019-02-27T13:18:03.826Z,15.05
2019-02-27T13:20:35.412Z,15.78
2019-02-27T13:23:05.579Z,16.10
2019-02-27T13:25:34.956Z,14.70
2019-02-27T13:28:04.363Z,14.45
2019-02-27T13:33:19.750Z,14.46
2019-02-27T13:35:49.080Z,12.84
2019-02-27T13:38:18.707Z,12.57
2019-02-27T13:40:48.055Z,12.66
2019-02-27T13:43:17.386Z,12.87
2019-02-27T13:45:47.605Z,12.61
2019-02-27T13:48:17.426Z,11.95
2019-02-27T13:50:46.993Z,12.14
2019-02-27T13:53:16.564Z,12.26
2019-02-27T13:55:48.254Z,12.17
2019-02-27T13:58:16.953Z,11.63
2019-02-27T14:00:46.292Z,11.56
2019-02-27T14:03:15.622Z,10.67
2019-02-27T14:05:44.964Z,11.19
2019-02-27T14:08:14.359Z,11.08
2019-02-27T14:10:43.690Z,10.68
2019-02-27T14:13:13.992Z,11.04
2019-02-27T14:15:43.317Z,10.54
2019-02-27T14:18:13.525Z,10.61
2019-02-27T14:20:43.661Z,11.01
2019-02-27T14:23:14.570Z,11.17
2019-02-27T14:25:44.008Z,11.30
2019-02-27T14:28:13.341Z,11.51
2019-02-27T14:30:48.198Z,11.36
2019-02-27T14:33:19.269Z,12.02
2019-02-27T14:35:48.551Z,12.08
2019-02-27T14:38:17.881Z,12.57
2019-02-27T14:40:47.451Z,13.12
2019-02-27T14:43:16.774Z,13.16
2019-02-27T14:45:46.331Z,13.31
2019-02-27T14:48:18.170Z,13.57
2019-02-27T14:50:46.687Z,13.92
2019-02-27T14:53:19.034Z,14.27
2019-02-27T14:55:47.265Z,14.54
2019-02-27T14:58:16.587Z,15.45
2019-02-27T15:00:46.151Z,16.10
2019-02-27T15:03:15.726Z,16.62
2019-02-27T15:05:45.371Z,16.74
2019-02-27T15:08:14.658Z,16.94
2019-02-27T15:10:44.049Z,17.47
2019-02-27T15:13:13.614Z,17.63
2019-02-27T15:15:43.753Z,18.34
2019-02-27T15:18:14.121Z,18.23
2019-02-27T15:20:43.423Z,18.98
2019-02-27T15:23:14.377Z,19.01
2019-02-27T15:25:43.704Z,19.49
2019-02-27T15:28:13.042Z,19.69
2019-02-27T15:30:46.315Z,20.52
2019-02-27T15:33:13.865Z,20.56
2019-02-27T15:35:43.255Z,21.02
2019-02-27T15:38:12.595Z,21.75
2019-02-27T15:40:42.086Z,21.21
2019-02-27T15:43:11.771Z,21.08
2019-02-27T15:45:47.274Z,21.56
2019-02-27T15:48:12.247Z,22.05
2019-02-27T15:50:41.584Z,21.55
2019-02-27T15:53:14.622Z,21.30
2019-02-27T15:55:42.183Z,22.31
2019-02-27T15:58:11.510Z,21.96
2019-02-27T16:00:40.912Z,22.46
2019-02-27T16:03:11.832Z,22.46
2019-02-27T16:05:41.342Z,22.33
2019-02-27T16:08:10.731Z,22.16
2019-02-27T16:10:43.713Z,22.24
2019-02-27T16:13:11.102Z,22.65
2019-02-27T16:15:40.661Z,23.69
2019-02-27T16:18:09.991Z,23.75
2019-02-27T16:20:39.327Z,23.12
2019-02-27T16:23:08.656Z,23.41
2019-02-27T16:25:37.990Z,24.58
2019-02-27T16:28:11.133Z,23.13
2019-02-27T16:30:38.640Z,24.00
2019-02-27T16:33:07.970Z,23.53
2019-02-27T16:35:41.575Z,23.77
2019-02-27T16:38:08.578Z,24.37
2019-02-27T16:40:37.902Z,24.64
2019-02-27T16:43:07.232Z,25.00
2019-02-27T16:45:37.975Z,25.55
2019-02-27T16:48:07.392Z,26.28
2019-02-27T16:50:36.716Z,26.88
2019-02-27T16:53:06.051Z,27.17
2019-02-27T16:55:37.457Z,28.23
2019-02-27T16:58:07.647Z,28.52
2019-02-27T17:00:38.551Z,29.31
2019-02-27T17:03:12.801Z,30.20
2019-02-27T17:05:40.376Z,30.33
2019-02-27T17:08:10.002Z,30.66
2019-02-27T17:10:39.961Z,31.47
2019-02-27T17:13:14.666Z,31.49
2019-02-27T17:15:40.416Z,31.66
2019-02-27T17:18:09.760Z,32.38
2019-02-27T17:20:39.336Z,32.85
2019-02-27T17:23:10.952Z,33.60
2019-02-27T17:25:39.698Z,34.26
2019-02-27T17:28:09.024Z,34.73
2019-02-27T17:30:38.418Z,35.40
2019-02-27T17:33:07.762Z,35.86
2019-02-27T17:35:37.087Z,36.28
2019-02-27T17:38:06.463Z,36.80
2019-02-27T17:40:37.599Z,37.31
2019-02-27T17:43:07.198Z,37.82
2019-02-27T17:45:36.772Z,38.24
2019-02-27T17:48:06.127Z,38.63
2019-02-27T17:50:35.458Z,39.06
2019-02-27T17:53:04.880Z,39.57
2019-02-27T17:55:34.193Z,39.90
2019-02-27T17:58:03.758Z,40.40
2019-02-27T18:00:49.975Z,40.62
2019-02-27T18:03:17.942Z,40.93
2019-02-27T18:05:47.275Z,41.25
2019-02-27T18:08:17.223Z,41.47
2019-02-27T18:10:46.587Z,42.41
2019-02-27T18:13:15.926Z,43.16
2019-02-27T18:15:45.251Z,43.99
2019-02-27T18:18:14.583Z,44.44
2019-02-27T18:20:44.168Z,45.01
2019-02-27T18:23:13.506Z,45.48
2019-02-27T18:25:43.062Z,45.77
2019-02-27T18:28:12.388Z,45.70
2019-02-27T18:30:42.717Z,45.67
2019-02-27T18:33:13.953Z,45.80
2019-02-27T18:35:43.222Z,46.05
2019-02-27T18:38:12.556Z,46.32
2019-02-27T18:40:42.779Z,46.78
2019-02-27T18:43:12.192Z,47.22
2019-02-27T18:45:41.526Z,47.48
2019-02-27T18:48:10.876Z,47.73
2019-02-27T18:50:40.209Z,48.12
2019-02-27T18:53:12.938Z,48.57
2019-02-27T18:55:40.590Z,48.72
2019-02-27T18:58:09.925Z,49.07
2019-02-27T19:00:39.265Z,49.26
2019-02-27T19:03:10.241Z,49.65
2019-02-27T19:05:41.824Z,49.82
2019-02-27T19:08:10.602Z,50.08
2019-02-27T19:10:42.431Z,50.37
2019-02-27T19:13:11.137Z,50.55
2019-02-27T19:15:45.427Z,50.77
2019-02-27T19:18:12.022Z,50.84
2019-02-27T19:20:43.784Z,50.96
2019-02-27T19:23:17.193Z,51.13
2019-02-27T19:25:45.598Z,51.30
2019-02-27T19:28:14.980Z,51.45
2019-02-27T19:30:44.341Z,51.62
2019-02-27T19:33:13.653Z,51.79
2019-02-27T19:35:43.023Z,52.14
2019-02-27T19:38:13.073Z,52.30
2019-02-27T19:40:43.171Z,52.45
2019-02-27T19:43:12.737Z,52.63
2019-02-27T19:45:42.485Z,52.82
2019-02-27T19:48:12.870Z,52.92
2019-02-27T19:50:44.866Z,52.95
2019-02-27T19:53:13.295Z,53.12
2019-02-27T19:55:42.753Z,53.13
2019-02-27T19:58:17.246Z,53.04
2019-02-27T20:00:48.500Z,53.02
2019-02-27T20:03:14.578Z,53.32
2019-02-27T20:05:43.908Z,53.36
2019-02-27T20:08:13.243Z,53.55
2019-02-27T20:10:44.161Z,53.81
2019-02-27T20:13:13.876Z,54.01
2019-02-27T20:15:45.672Z,54.27
2019-02-27T20:18:15.016Z,54.40
2019-02-27T20:20:44.414Z,54.61
2019-02-27T20:23:13.821Z,54.86
2019-02-27T20:25:44.370Z,54.92
2019-02-27T20:28:13.845Z,55.08
2019-02-27T20:30:43.466Z,55.40
2019-02-27T20:33:12.950Z,55.00
2019-02-27T20:35:42.265Z,54.93
2019-02-27T20:38:15.476Z,54.63
2019-02-27T20:40:43.021Z,54.26
2019-02-27T20:43:13.317Z,53.56
2019-02-27T20:45:43.535Z,53.03
2019-02-27T20:48:13.203Z,52.98
2019-02-27T20:50:48.508Z,52.76
2019-02-27T20:53:20.936Z,52.40
2019-02-27T20:55:49.145Z,52.22
2019-02-27T20:58:18.840Z,52.45
2019-02-27T21:00:48.519Z,53.01
2019-02-27T21:03:17.854Z,53.40
2019-02-27T21:05:48.586Z,54.00
2019-02-27T21:08:17.918Z,53.94
2019-02-27T21:10:47.367Z,53.89
2019-02-27T21:13:16.963Z,54.14
2019-02-27T21:15:46.368Z,54.38
2019-02-27T21:18:16.213Z,54.60
2019-02-27T21:20:46.224Z,54.92
2019-02-27T21:23:15.889Z,55.23
2019-02-27T21:25:48.768Z,55.55
2019-02-27T21:28:20.962Z,56.12
2019-02-27T21:30:51.910Z,56.43
2019-02-27T21:33:19.038Z,56.41
2019-02-27T21:35:48.417Z,56.68
2019-02-27T21:38:17.777Z,56.99
2019-02-27T21:40:47.239Z,57.16
2019-02-27T21:43:16.565Z,57.62
2019-02-27T21:45:46.008Z,57.74
2019-02-27T21:48:15.693Z,58.12
2019-02-27T21:50:45.357Z,58.48
2019-02-27T21:53:14.718Z,58.93
2019-02-27T21:55:44.916Z,59.29
2019-02-27T21:58:20.298Z,59.59
2019-02-27T22:00:48.125Z,59.96
2019-02-27T22:03:17.008Z,60.37
2019-02-27T22:05:46.980Z,60.68
2019-02-27T22:08:16.438Z,60.87
2019-02-27T22:10:45.841Z,61.12
2019-02-27T22:13:15.329Z,61.39
2019-02-27T22:15:44.774Z,61.39
2019-02-27T22:18:14.199Z,61.71
2019-02-27T22:20:43.536Z,61.91
2019-02-27T22:23:13.557Z,62.16
2019-02-27T22:25:42.921Z,62.49
2019-02-27T22:28:12.245Z,62.74
2019-02-27T22:30:41.807Z,63.01
2019-02-27T22:33:11.136Z,62.99
2019-02-27T22:35:40.470Z,63.64
2019-02-27T22:38:09.792Z,63.76
2019-02-27T22:40:39.238Z,64.15
2019-02-27T22:43:08.769Z,64.23
2019-02-27T22:45:40.577Z,64.64
2019-02-27T22:48:09.119Z,64.52
2019-02-27T22:50:41.230Z,64.72
2019-02-27T22:53:09.477Z,64.85
2019-02-27T22:55:42.263Z,65.11
2019-02-27T22:58:09.832Z,65.34
2019-02-27T23:00:56.550Z,65.38
2019-02-27T23:03:30.956Z,65.44
2019-02-27T23:06:00.361Z,65.41
2019-02-27T23:08:30.665Z,65.83
2019-02-27T23:11:02.950Z,66.05
2019-02-27T23:13:31.914Z,66.00
2019-02-27T23:16:01.267Z,66.15
2019-02-27T23:18:31.370Z,66.16
2019-02-27T23:21:00.764Z,66.10
2019-02-27T23:23:30.060Z,66.27
2019-02-27T23:25:59.620Z,66.06
2019-02-27T23:28:34.528Z,66.22
2019-02-27T23:31:00.955Z,66.42
2019-02-27T23:33:35.873Z,66.54
2019-02-27T23:36:01.682Z,66.57
2019-02-27T23:38:31.013Z,66.89
2019-02-27T23:41:00.342Z,66.83
2019-02-27T23:43:29.667Z,67.03
2019-02-27T23:45:58.999Z,66.99
2019-02-27T23:48:28.716Z,67.20
2019-02-27T23:50:58.045Z,67.21
2019-02-27T23:53:27.839Z,67.34
2019-02-27T23:55:57.184Z,67.49
2019-02-27T23:58:29.487Z,67.55
